EGAC/BHD METAR and TAF weather

Enter ICAO airport designator
Station Type Date Time Source
EGAC METAR 2021/05/14 22:20 UTC NOAA

EGAC 142220Z AUTO VRB02KT 8000 NCD 08/07 Q1003


Station Type Date Time Source
EGAC Decoded METAR 2021/05/14 22:20 UTC NOAA

Belfast / Harbour, United Kingdom (EGAC) 54-36N 005-53W 0M
May 14, 2021 - 06:20 PM EDT / 2021.05.14 2220 UTC
Wind: Variable at 2 MPH (2 KT):0
Visibility: 4 mile(s):0
Temperature: 46 F (8 C)
Dew Point: 44 F (7 C)
Relative Humidity: 93%
Pressure (altimeter): 29.62 in. Hg (1003 hPa)
ob: EGAC 142220Z AUTO VRB02KT 8000 NCD 08/07 Q1003
cycle: 22

Station Type Date Time Source
EGAC TAF UTC NOAA

Error!

Example: see airport list